Time;durP1;ratioP1;P1;durP2;ratioP2;P2;SDS_P1;SDS_P2;PMS_P1;PMS_P2;Temp;Humidity;BMP_temperature;BMP_pressure;BME280_temperature;BME280_humidity;BME280_pressure;Samples;Min_cycle;Max_cycle;Signal;HPM_P1;HPM_P2
2021/01/03 00:01:02;;;;;;;;;;;;;;;2.16;100.00;100326.25;5095470;28;20359;-77
2021/01/03 00:03:29;;;;;;;;;;;;;;;2.15;100.00;100316.38;5095426;28;19924;-77
2021/01/03 00:05:56;;;;;;;;;;;;;;;2.14;100.00;100309.22;5076873;28;19924;-77
2021/01/03 00:08:23;;;;;;;;;;;;;;;2.16;100.00;100306.94;5095346;28;19924;-77
2021/01/03 00:10:50;;;;;;;;;;;;;;;2.13;100.00;100304.84;5095197;28;19931;-77
2021/01/03 00:13:17;;;;;;;;;;;;;;;2.11;100.00;100315.41;5095310;28;19977;-77
2021/01/03 00:15:43;;;;;;;;;;;;;;;2.08;100.00;100314.16;5095136;28;19930;-77
2021/01/03 00:18:10;;;;;;;;;;;;;;;2.10;100.00;100316.56;5095324;28;19978;-78
2021/01/03 00:20:37;;;;;;;;;;;;;;;2.11;100.00;100309.91;5094914;28;19924;-77
2021/01/03 00:23:04;;;;;;;;;;;;;;;2.15;100.00;100305.34;5095117;28;19990;-77
2021/01/03 00:25:31;;;;;;;;;;;;;;;2.17;100.00;100311.28;5095089;28;19981;-77
2021/01/03 00:27:57;;;;;;;;;;;;;;;2.16;100.00;100296.72;5094974;28;19924;-76
2021/01/03 00:30:25;;;;;;;;;;;;;;;2.13;100.00;100307.63;5094824;28;19978;-77
2021/01/03 00:32:52;;;;;;;;;;;;;;;2.13;100.00;100308.44;5094803;28;19931;-77
2021/01/03 00:35:27;;;;;;;;;;;;;;;2.17;100.00;100314.06;5076845;28;20352;-76
2021/01/03 00:37:56;;;;;;;;;;;;;;;2.22;100.00;100300.06;5076783;28;20007;-76
2021/01/03 00:40:23;;;;;;;;;;;;;;;2.22;100.00;100302.81;5094853;28;19924;-77
2021/01/03 00:42:49;;;;;;;;;;;;;;;2.21;100.00;100299.28;5076650;28;19931;-76
2021/01/03 00:45:16;;;;;;;;;;;;;;;2.20;100.00;100299.59;5094667;28;19977;-76
2021/01/03 00:47:42;;;;;;;;;;;;;;;2.17;100.00;100314.88;5094355;28;19931;-76
2021/01/03 00:50:10;;;;;;;;;;;;;;;2.17;100.00;100301.09;5094600;28;20355;-76
2021/01/03 00:52:37;;;;;;;;;;;;;;;2.14;100.00;100304.53;5094607;28;20268;-76
2021/01/03 00:55:05;;;;;;;;;;;;;;;2.12;100.00;100304.03;5094439;28;19924;-76
2021/01/03 00:57:32;;;;;;;;;;;;;;;2.13;100.00;100310.38;5094555;28;19924;-76
2021/01/03 00:59:58;;;;;;;;;;;;;;;2.11;100.00;100315.41;5094543;28;19959;-76
2021/01/03 01:02:25;;;;;;;;;;;;;;;2.08;100.00;100305.88;5094115;28;19924;-76
2021/01/03 01:04:51;;;;;;;;;;;;;;;2.04;100.00;100312.41;5094353;28;19973;-73
2021/01/03 01:07:18;;;;;;;;;;;;;;;2.00;100.00;100297.69;5094410;28;19925;-76
2021/01/03 01:09:44;;;;;;;;;;;;;;;1.95;100.00;100303.38;5094289;28;19931;-76
2021/01/03 01:12:11;;;;;;;;;;;;;;;1.97;100.00;100292.84;5094232;28;20323;-75
2021/01/03 01:14:37;;;;;;;;;;;;;;;1.98;100.00;100305.47;5076122;28;19924;-76
2021/01/03 01:17:06;;;;;;;;;;;;;;;1.95;100.00;100301.44;5093981;28;19978;-76
2021/01/03 01:19:32;;;;;;;;;;;;;;;1.98;100.00;100299.97;5094209;28;20432;-76
2021/01/03 01:21:58;;;;;;;;;;;;;;;1.99;100.00;100304.31;5094231;28;20015;-75
2021/01/03 01:24:25;;;;;;;;;;;;;;;1.97;100.00;100303.88;5076211;28;19947;-76
2021/01/03 01:26:53;;;;;;;;;;;;;;;1.92;100.00;100309.59;5094068;28;19947;-76
2021/01/03 01:29:19;;;;;;;;;;;;;;;1.95;100.00;100308.91;5094289;28;19924;-76
2021/01/03 01:31:46;;;;;;;;;;;;;;;1.96;100.00;100297.53;5093813;28;20014;-76
2021/01/03 01:34:12;;;;;;;;;;;;;;;1.99;100.00;100307.09;5075964;28;20302;-76
2021/01/03 01:36:41;;;;;;;;;;;;;;;2.02;100.00;100306.41;5094075;28;19928;-76
2021/01/03 01:39:07;;;;;;;;;;;;;;;2.05;100.00;100306.56;5093987;28;20349;-76
2021/01/03 01:41:34;;;;;;;;;;;;;;;2.06;100.00;100313.66;5094074;28;19977;-76
2021/01/03 01:44:00;;;;;;;;;;;;;;;2.09;100.00;100312.19;5075990;28;19928;-76
2021/01/03 01:46:30;;;;;;;;;;;;;;;2.07;100.00;100315.28;5075862;28;20348;-76
2021/01/03 01:48:56;;;;;;;;;;;;;;;2.08;100.00;100314.16;5096592;28;19932;-76
2021/01/03 01:51:25;;;;;;;;;;;;;;;2.11;100.00;100309.91;5098274;28;19928;-76
2021/01/03 01:53:58;;;;;;;;;;;;;;;2.15;100.00;100313.59;5098247;28;19938;-76
2021/01/03 01:56:31;;;;;;;;;;;;;;;2.17;100.00;100323.16;5098360;27;20295;-76
2021/01/03 01:59:04;;;;;;;;;;;;;;;2.16;100.00;100313.28;5080014;28;20462;-76
2021/01/03 02:01:35;;;;;;;;;;;;;;;2.15;100.00;100319.13;5079756;28;19930;-75
2021/01/03 02:04:07;;;;;;;;;;;;;;;2.13;100.00;100313.13;5098047;28;19928;-76
2021/01/03 02:06:41;;;;;;;;;;;;;;;2.07;100.00;100309.78;5097980;28;20367;-76
2021/01/03 02:09:13;;;;;;;;;;;;;;;2.04;100.00;100306.88;5079770;28;19931;-75
2021/01/03 02:11:40;;;;;;;;;;;;;;;2.01;100.00;100307.56;5113614;28;20341;-76
2021/01/03 02:14:07;;;;;;;;;;;;;;;2.01;100.00;100302.88;5113493;28;19924;-76
2021/01/03 02:16:35;;;;;;;;;;;;;;;2.02;100.00;100309.97;5097456;28;20282;-76
2021/01/03 02:19:01;;;;;;;;;;;;;;;2.00;100.00;100306.75;5079575;28;19928;-75
2021/01/03 02:21:40;;;;;;;;;;;;;;;2.03;100.00;100313.56;5079764;28;20306;-75
2021/01/03 02:24:29;;;;;;;;;;;;;;;2.01;100.00;100310.31;5097677;28;20501;-76
2021/01/03 02:27:07;;;;;;;;;;;;;;;2.03;100.00;100308.03;5097675;28;20375;-75
2021/01/03 02:29:34;;;;;;;;;;;;;;;2.02;100.00;100317.44;5097202;28;19924;-75
2021/01/03 02:32:02;;;;;;;;;;;;;;;1.98;100.00;100299.97;5097532;28;20391;-75
2021/01/03 02:34:36;;;;;;;;;;;;;;;1.99;100.00;100296.06;5097447;28;20359;-75
2021/01/03 02:37:05;;;;;;;;;;;;;;;1.98;100.00;100305.47;5097547;28;20248;-75
2021/01/03 02:39:32;;;;;;;;;;;;;;;1.98;100.00;100313.75;5079301;28;19924;-76
2021/01/03 02:42:00;;;;;;;;;;;;;;;2.00;100.00;100315.00;5097350;28;20367;-76
2021/01/03 02:44:27;;;;;;;;;;;;;;;2.08;100.00;100310.56;5079083;28;19939;-75
2021/01/03 02:46:55;;;;;;;;;;;;;;;2.07;100.00;100320.81;5097318;28;19928;-75
2021/01/03 02:49:24;;;;;;;;;;;;;;;2.10;100.00;100308.28;5097168;28;19935;-76
2021/01/03 02:51:50;;;;;;;;;;;;;;;2.06;100.00;100308.16;5097255;28;19969;-76
2021/01/03 02:54:17;;;;;;;;;;;;;;;2.10;100.00;100309.09;5079087;28;20383;-75
2021/01/03 02:56:44;;;;;;;;;;;;;;;2.11;100.00;100301.63;5078806;28;20309;-76
2021/01/03 02:59:10;;;;;;;;;;;;;;;2.07;100.00;100304.28;5078623;28;19931;-76
2021/01/03 03:01:37;;;;;;;;;;;;;;;2.09;100.00;100312.19;5096961;28;19924;-75
2021/01/03 03:04:03;;;;;;;;;;;;;;;2.13;100.00;100313.13;5096983;28;19925;-75
2021/01/03 03:06:30;;;;;;;;;;;;;;;2.13;100.00;100304.84;5096836;28;20007;-75
2021/01/03 03:08:56;;;;;;;;;;;;;;;2.13;100.00;100296.59;5078707;28;19946;-76
2021/01/03 03:11:22;;;;;;;;;;;;;;;2.10;100.00;100308.28;5112429;28;19924;-75
2021/01/03 03:13:49;;;;;;;;;;;;;;;2.09;100.00;100306.69;5096483;28;19970;-75
2021/01/03 03:16:16;;;;;;;;;;;;;;;2.07;100.00;100303.44;5112351;28;20264;-76
2021/01/03 03:18:43;;;;;;;;;;;;;;;2.02;100.00;100298.94;5096646;28;19925;-75
2021/01/03 03:21:10;;;;;;;;;;;;;;;2.05;100.00;100292.75;5078721;28;19931;-75
2021/01/03 03:23:37;;;;;;;;;;;;;;;2.01;100.00;100288.25;5078505;28;19924;-75
2021/01/03 03:26:03;;;;;;;;;;;;;;;2.06;100.00;100294.38;5061929;28;19924;-73
2021/01/03 03:28:30;;;;;;;;;;;;;;;2.09;100.00;100287.38;5111839;28;19924;-75
2021/01/03 03:30:56;;;;;;;;;;;;;;;2.08;100.00;100280.25;5096247;28;19963;-76
2021/01/03 03:33:23;;;;;;;;;;;;;;;2.09;100.00;100290.16;5096315;28;20367;-75
2021/01/03 03:35:49;;;;;;;;;;;;;;;2.18;100.00;100293.63;5096219;28;19928;-75
2021/01/03 03:38:16;;;;;;;;;;;;;;;2.18;100.00;100293.63;5096357;28;19970;-75
2021/01/03 03:40:42;;;;;;;;;;;;;;;2.22;100.00;100295.38;5078120;28;19931;-75
2021/01/03 03:43:09;;;;;;;;;;;;;;;2.17;100.00;100292.81;5095766;28;20336;-75
2021/01/03 03:45:35;;;;;;;;;;;;;;;2.17;100.00;100292.81;5078206;28;19946;-75
2021/01/03 03:48:02;;;;;;;;;;;;;;;2.15;100.00;100299.81;5095942;28;20023;-76
2021/01/03 03:50:28;;;;;;;;;;;;;;;2.14;100.00;100290.72;5095973;28;19924;-75
2021/01/03 03:52:55;;;;;;;;;;;;;;;2.14;100.00;100289.91;5095798;28;19978;-75
2021/01/03 03:55:21;;;;;;;;;;;;;;;2.04;100.00;100287.59;5095755;28;19928;-75
2021/01/03 03:57:48;;;;;;;;;;;;;;;2.06;100.00;100285.31;5095431;28;19924;-75
2021/01/03 04:00:19;;;;;;;;;;;;;;;2.05;100.00;100289.19;5077642;28;19932;-75
2021/01/03 04:02:46;;;;;;;;;;;;;;;1.97;100.00;100281.81;5095591;28;19931;-75
2021/01/03 04:05:16;;;;;;;;;;;;;;;1.94;100.00;100283.28;5094457;28;19925;-76
2021/01/03 04:07:42;;;;;;;;;;;;;;;1.86;100.00;100286.94;5095414;28;20378;-75
2021/01/03 04:10:09;;;;;;;;;;;;;;;1.88;100.00;100276.38;5110972;28;19924;-75
2021/01/03 04:12:36;;;;;;;;;;;;;;;1.83;100.00;100279.34;5077075;28;20310;-75
2021/01/03 04:15:07;;;;;;;;;;;;;;;1.81;100.00;100268.66;5095280;28;19931;-75
2021/01/03 04:17:33;;;;;;;;;;;;;;;1.83;100.00;100274.63;5077349;28;19930;-75
2021/01/03 04:20:00;;;;;;;;;;;;;;;1.88;100.00;100272.81;5095280;28;19951;-76
2021/01/03 04:22:29;;;;;;;;;;;;;;;1.88;100.00;100277.19;5095243;28;19927;-75
2021/01/03 04:24:57;;;;;;;;;;;;;;;1.88;100.00;100278.34;5094886;28;19930;-75
2021/01/03 04:27:23;;;;;;;;;;;;;;;1.88;100.00;100279.13;5095050;28;19924;-75
2021/01/03 04:29:50;;;;;;;;;;;;;;;1.92;100.00;100274.56;5093761;28;19924;-75
2021/01/03 04:32:16;;;;;;;;;;;;;;;1.92;100.00;100286.38;5111172;28;19931;-75
2021/01/03 04:34:43;;;;;;;;;;;;;;;1.90;100.00;100290.63;5094941;28;19924;-75
2021/01/03 04:37:10;;;;;;;;;;;;;;;1.92;100.00;100291.88;5094807;28;19925;-75
2021/01/03 04:39:36;;;;;;;;;;;;;;;1.92;100.00;100288.34;5094481;28;19969;-75
2021/01/03 04:42:06;;;;;;;;;;;;;;;1.91;100.00;100288.69;5094772;28;19963;-75
2021/01/03 04:44:39;;;;;;;;;;;;;;;1.92;100.00;100297.41;5094684;28;19924;-75
2021/01/03 04:47:14;;;;;;;;;;;;;;;1.94;100.00;100294.31;5076292;28;20375;-75
2021/01/03 04:49:44;;;;;;;;;;;;;;;1.92;100.00;100302.91;5076521;28;19924;-75
2021/01/03 04:52:26;;;;;;;;;;;;;;;1.91;100.00;100294.19;5076650;28;19959;-75
2021/01/03 04:55:12;;;;;;;;;;;;;;;1.91;100.00;100299.72;5076234;28;19991;-75
2021/01/03 04:57:58;;;;;;;;;;;;;;;1.92;100.00;100291.88;5094465;28;19924;-75
2021/01/03 05:00:43;;;;;;;;;;;;;;;1.90;100.00;100285.09;5063422;28;19924;-75
2021/01/03 05:03:24;;;;;;;;;;;;;;;1.88;100.00;100285.44;5110150;28;20367;-75
2021/01/03 05:05:51;;;;;;;;;;;;;;;1.86;100.00;100276.69;5094499;28;19924;-75
2021/01/03 05:08:18;;;;;;;;;;;;;;;1.91;100.00;100283.16;5075645;28;19931;-75
2021/01/03 05:10:45;;;;;;;;;;;;;;;1.92;100.00;100284.78;5092947;28;19924;-75
2021/01/03 05:13:28;;;;;;;;;;;;;;;1.97;100.00;100287.34;5094274;28;19928;-75
2021/01/03 05:15:54;;;;;;;;;;;;;;;1.99;100.00;100290.53;5094167;28;19924;-75
2021/01/03 05:18:21;;;;;;;;;;;;;;;1.97;100.00;100299.16;5075891;28;19930;-75
2021/01/03 05:20:58;;;;;;;;;;;;;;;1.97;100.00;100295.59;5109834;28;19924;-75
2021/01/03 05:23:26;;;;;;;;;;;;;;;1.97;100.00;100292.84;5092814;28;19946;-75
2021/01/03 05:25:54;;;;;;;;;;;;;;;1.98;100.00;100288.94;5094142;28;19950;-75
2021/01/03 05:28:25;;;;;;;;;;;;;;;2.01;100.00;100288.25;5093777;28;19927;-75
2021/01/03 05:30:52;;;;;;;;;;;;;;;2.00;100.00;100292.16;5093878;28;19928;-75
2021/01/03 05:33:23;;;;;;;;;;;;;;;2.00;100.00;100279.19;5076127;28;19924;-76
2021/01/03 05:35:50;;;;;;;;;;;;;;;1.96;100.00;100283.75;5093851;28;19950;-75
2021/01/03 05:38:35;;;;;;;;;;;;;;;1.99;100.00;100290.53;5075683;28;19924;-75
2021/01/03 05:41:22;;;;;;;;;;;;;;;1.97;100.00;100293.63;5093839;28;19982;-75
2021/01/03 05:43:54;;;;;;;;;;;;;;;1.92;100.00;100291.09;5055473;28;20394;-75
2021/01/03 05:46:25;;;;;;;;;;;;;;;1.92;100.00;100288.34;5093618;28;19924;-76
2021/01/03 05:48:59;;;;;;;;;;;;;;;1.94;100.00;100288.00;5093772;28;19928;-75
2021/01/03 05:51:46;;;;;;;;;;;;;;;1.92;100.00;100297.41;5093961;28;19928;-75
2021/01/03 05:54:18;;;;;;;;;;;;;;;1.89;100.00;100298.06;5075647;28;19925;-75
2021/01/03 05:56:45;;;;;;;;;;;;;;;1.92;100.00;100288.34;5093496;28;19924;-75
2021/01/03 05:59:25;;;;;;;;;;;;;;;1.94;100.00;100299.03;5093692;28;19935;-75
2021/01/03 06:02:04;;;;;;;;;;;;;;;1.94;100.00;100301.78;5109360;28;19936;-75
2021/01/03 06:04:31;;;;;;;;;;;;;;;1.91;100.00;100294.19;5093691;28;19931;-75
2021/01/03 06:07:04;;;;;;;;;;;;;;;1.89;100.00;100298.06;5108865;28;20371;-76
2021/01/03 06:09:59;;;;;;;;;;;;;;;1.92;100.00;100308.44;5093153;28;20003;-75
2021/01/03 06:12:58;;;;;;;;;;;;;;;1.92;100.00;100312.34;5094113;27;19928;-76
2021/01/03 06:16:00;;;;;;;;;;;;;;;1.84;100.00;100312.06;5076463;28;20330;-76
2021/01/03 06:19:13;;;;;;;;;;;;;;;1.84;100.00;100306.56;5043405;28;19924;-73
2021/01/03 06:22:10;;;;;;;;;;;;;;;1.86;100.00;100320.78;5076256;28;19931;-75
2021/01/03 06:24:38;;;;;;;;;;;;;;;1.81;100.00;100312.75;5093591;28;19928;-75
2021/01/03 06:27:11;;;;;;;;;;;;;;;1.79;100.00;100320.53;5093552;28;19924;-75
2021/01/03 06:29:58;;;;;;;;;;;;;;;1.79;100.00;100315.03;5075607;28;19956;-75
2021/01/03 06:32:51;;;;;;;;;;;;;;;1.76;100.00;100321.22;5093445;28;19924;-75
2021/01/03 06:35:31;;;;;;;;;;;;;;;1.76;100.00;100321.22;5075223;28;19924;-75
2021/01/03 06:38:04;;;;;;;;;;;;;;;1.80;100.00;100327.66;5097242;28;20275;-75
2021/01/03 06:40:34;;;;;;;;;;;;;;;1.80;100.00;100333.16;5097226;28;19924;-75
2021/01/03 06:43:20;;;;;;;;;;;;;;;1.76;100.00;100332.22;5079244;28;19927;-75
2021/01/03 06:46:05;;;;;;;;;;;;;;;1.80;100.00;100344.19;5097080;28;19935;-75
2021/01/03 06:48:50;;;;;;;;;;;;;;;1.80;100.00;100338.69;5097011;28;20367;-75
2021/01/03 06:51:23;;;;;;;;;;;;;;;1.80;100.00;100348.91;5078750;28;19924;-75
2021/01/03 06:54:06;;;;;;;;;;;;;;;1.85;100.00;100357.78;5096901;28;19924;-75
2021/01/03 06:56:32;;;;;;;;;;;;;;;1.81;100.00;100367.88;5096715;28;20333;-75
2021/01/03 06:59:05;;;;;;;;;;;;;;;1.90;100.00;100362.28;5078845;28;19931;-75
2021/01/03 07:01:33;;;;;;;;;;;;;;;1.90;100.00;100376.06;5096855;28;19928;-75
2021/01/03 07:04:00;;;;;;;;;;;;;;;1.89;100.00;100379.97;5096672;28;19931;-75
2021/01/03 07:06:34;;;;;;;;;;;;;;;1.91;100.00;100385.16;5096343;28;19931;-75
2021/01/03 07:09:06;;;;;;;;;;;;;;;1.94;100.00;100390.00;5078544;28;19924;-75
2021/01/03 07:11:43;;;;;;;;;;;;;;;2.02;100.00;100400.97;5075088;28;19939;-75
2021/01/03 07:14:19;;;;;;;;;;;;;;;2.04;100.00;100403.38;5058629;28;19931;-75
2021/01/03 07:16:48;;;;;;;;;;;;;;;2.03;100.00;100405.31;5076145;28;19924;-75
2021/01/03 07:19:25;;;;;;;;;;;;;;;2.05;100.00;100410.50;5075891;28;20364;-75
2021/01/03 07:21:53;;;;;;;;;;;;;;;2.04;100.00;100419.91;5076208;28;19936;-75
2021/01/03 07:24:25;;;;;;;;;;;;;;;2.02;100.00;100419.44;5076211;28;20432;-75
2021/01/03 07:27:10;;;;;;;;;;;;;;;2.00;100.00;100413.47;5076099;28;20055;-75
2021/01/03 07:29:48;;;;;;;;;;;;;;;1.89;100.00;100413.84;5058540;28;19998;-75
2021/01/03 07:32:15;;;;;;;;;;;;;;;1.94;100.00;100423.09;5073490;28;19970;-75
2021/01/03 07:34:48;;;;;;;;;;;;;;;1.89;100.00;100416.59;5075660;28;19932;-75
2021/01/03 07:37:25;;;;;;;;;;;;;;;1.88;100.00;100417.75;5075922;28;19925;-75
2021/01/03 07:40:03;;;;;;;;;;;;;;;1.81;100.00;100425.75;5074975;28;20015;-75
2021/01/03 07:42:31;;;;;;;;;;;;;;;1.81;100.00;100420.22;5075814;28;19931;-76
2021/01/03 07:45:03;;;;;;;;;;;;;;;1.77;100.00;100416.50;5075689;28;19931;-76
2021/01/03 07:47:36;;;;;;;;;;;;;;;1.74;100.00;100424.66;5075340;28;19932;-76
2021/01/03 07:50:22;;;;;;;;;;;;;;;1.67;100.00;100427.91;5075504;28;19964;-74
2021/01/03 07:52:50;;;;;;;;;;;;;;;1.72;100.00;100451.72;5075640;28;19924;-74
2021/01/03 07:55:22;;;;;;;;;;;;;;;1.70;100.00;100460.31;5075564;28;20015;-74
2021/01/03 07:58:00;;;;;;;;;;;;;;;1.73;100.00;100487.22;5075702;28;19974;-74
2021/01/03 08:00:28;;;;;;;;;;;;;;;1.72;100.00;100512.34;5075822;28;19935;-74
2021/01/03 08:03:02;;;;;;;;;;;;;;;1.68;100.00;100525.97;5075213;28;19992;-74
2021/01/03 08:05:29;;;;;;;;;;;;;;;1.70;100.00;100562.28;5074233;28;19924;-74
2021/01/03 08:08:01;;;;;;;;;;;;;;;1.70;100.00;100587.09;5074149;28;19925;-74
2021/01/03 08:10:28;;;;;;;;;;;;;;;1.65;100.00;100601.03;5078387;28;19924;-74
2021/01/03 08:13:00;;;;;;;;;;;;;;;1.68;100.00;100614.16;5095410;28;19938;-74
2021/01/03 08:15:28;;;;;;;;;;;;;;;1.68;100.00;100651.94;5095606;28;20398;-74
2021/01/03 08:17:59;;;;;;;;;;;;;;;1.72;100.00;100672.19;5077007;28;19924;-74
2021/01/03 08:20:26;;;;;;;;;;;;;;;1.74;100.00;100686.47;5111210;28;19993;-74
2021/01/03 08:22:52;;;;;;;;;;;;;;;1.73;100.00;100715.97;5077391;28;20001;-75
2021/01/03 08:25:24;;;;;;;;;;;;;;;1.74;100.00;100742.38;5095242;28;19924;-74
2021/01/03 08:28:04;;;;;;;;;;;;;;;1.71;100.00;100764.28;5077595;28;19924;-75
2021/01/03 08:30:32;;;;;;;;;;;;;;;1.77;100.00;100785.81;5095364;28;19928;-74
2021/01/03 08:32:59;;;;;;;;;;;;;;;1.79;100.00;100813.88;5094736;28;19977;-74
2021/01/03 08:35:29;;;;;;;;;;;;;;;1.74;100.00;100830.56;5095023;28;20014;-74
2021/01/03 08:37:55;;;;;;;;;;;;;;;1.66;100.00;100828.63;5094971;28;19924;-75
2021/01/03 08:40:24;;;;;;;;;;;;;;;1.65;100.00;100849.03;5095081;28;20371;-74
2021/01/03 08:43:06;;;;;;;;;;;;;;;1.70;100.00;100868.19;5095132;28;20015;-75
2021/01/03 08:45:34;;;;;;;;;;;;;;;1.68;100.00;100902.72;5094852;28;19935;-75
2021/01/03 08:48:03;;;;;;;;;;;;;;;1.72;100.00;100926.56;5110152;28;20461;-75
2021/01/03 08:50:32;;;;;;;;;;;;;;;1.79;100.00;100959.97;5094828;28;19924;-75
2021/01/03 08:53:19;;;;;;;;;;;;;;;1.84;100.00;100979.13;5094974;28;19992;-74
2021/01/03 08:55:45;;;;;;;;;;;;;;;1.91;100.00;100994.38;5076299;28;19928;-74
2021/01/03 08:58:13;;;;;;;;;;;;;;;1.91;100.00;101005.41;5110513;28;20287;-74
2021/01/03 09:00:41;;;;;;;;;;;;;;;1.92;100.00;101019.69;5094229;28;19969;-75
2021/01/03 09:03:18;;;;;;;;;;;;;;;1.91;100.00;101033.00;5094663;28;19931;-75
2021/01/03 09:05:46;;;;;;;;;;;;;;;1.95;100.00;101045.81;5076665;28;19924;-75
2021/01/03 09:08:15;;;;;;;;;;;;;;;1.96;100.00;101060.41;5094602;28;19981;-75
2021/01/03 09:10:43;;;;;;;;;;;;;;;1.95;100.00;101075.31;5094158;28;19934;-75
2021/01/03 09:13:25;;;;;;;;;;;;;;;2.01;100.00;101093.34;5094279;28;19924;-75
2021/01/03 09:16:02;;;;;;;;;;;;;;;2.07;100.00;101111.38;5076104;28;19935;-75
2021/01/03 09:18:52;;;;;;;;;;;;;;;2.05;100.00;101121.91;5094186;28;20367;-74
2021/01/03 09:21:18;;;;;;;;;;;;;;;2.02;100.00;101123.38;5086160;28;20278;-74
2021/01/03 09:23:48;;;;;;;;;;;;;;;2.02;100.00;101137.16;5094199;28;19963;-74
2021/01/03 09:26:15;;;;;;;;;;;;;;;1.92;100.00;101131.94;5094164;28;20301;-75
2021/01/03 09:28:42;;;;;;;;;;;;;;;1.94;100.00;101131.59;5076215;28;20256;-74
2021/01/03 09:31:11;;;;;;;;;;;;;;;1.98;100.00;101132.59;5075887;28;19951;-74
2021/01/03 09:33:39;;;;;;;;;;;;;;;1.82;100.00;101123.91;5076078;28;19924;-75
2021/01/03 09:36:20;;;;;;;;;;;;;;;1.79;100.00;101122.59;5094049;28;19977;-75
2021/01/03 09:38:47;;;;;;;;;;;;;;;1.81;100.00;101131.38;5076110;28;19935;-75
2021/01/03 09:41:34;;;;;;;;;;;;;;;1.80;100.00;101132.50;5093960;28;20371;-75
2021/01/03 09:44:07;;;;;;;;;;;;;;;1.94;100.00;101142.63;5093810;28;20264;-74
2021/01/03 09:46:54;;;;;;;;;;;;;;;1.94;100.00;101148.94;5093938;28;19924;-75
2021/01/03 09:49:23;;;;;;;;;;;;;;;2.01;100.00;101149.31;5065776;28;20402;-76
2021/01/03 09:51:52;;;;;;;;;;;;;;;2.01;100.00;101154.84;5076023;28;19924;-76
2021/01/03 09:54:21;;;;;;;;;;;;;;;2.12;100.00;101160.91;5093589;28;20520;-78
2021/01/03 09:56:51;;;;;;;;;;;;;;;2.09;100.00;101161.53;5093539;28;19924;-76
2021/01/03 09:59:19;;;;;;;;;;;;;;;2.12;100.00;101163.66;5093220;28;19928;-77
2021/01/03 10:01:47;;;;;;;;;;;;;;;2.07;100.00;101164.59;5093530;28;19924;-77
2021/01/03 10:04:22;;;;;;;;;;;;;;;2.11;100.00;101173.88;5093305;28;20445;-76
2021/01/03 10:06:51;;;;;;;;;;;;;;;2.13;100.00;101173.53;5109345;28;19931;-75
2021/01/03 10:09:24;;;;;;;;;;;;;;;2.14;100.00;101173.22;5077232;28;19924;-76
2021/01/03 10:11:52;;;;;;;;;;;;;;;2.17;100.00;101180.03;5097564;28;20387;-76
2021/01/03 10:14:27;;;;;;;;;;;;;;;2.18;100.00;101176.19;5079507;28;19924;-76
2021/01/03 10:16:54;;;;;;;;;;;;;;;2.13;100.00;101168.03;5079644;28;19924;-76
2021/01/03 10:19:22;;;;;;;;;;;;;;;2.13;100.00;101173.53;5097549;28;20375;-76
2021/01/03 10:21:48;;;;;;;;;;;;;;;2.14;100.00;101172.41;5097528;28;19928;-75
2021/01/03 10:24:18;;;;;;;;;;;;;;;2.07;100.00;101174.81;5097539;28;19924;-76
2021/01/03 10:26:46;;;;;;;;;;;;;;;2.06;100.00;101168.47;5097647;28;19974;-76
2021/01/03 10:29:14;;;;;;;;;;;;;;;2.10;100.00;101168.66;5097020;28;19943;-76
2021/01/03 10:31:44;;;;;;;;;;;;;;;1.98;100.00;101177.53;5062468;28;20298;-77
2021/01/03 10:34:12;;;;;;;;;;;;;;;1.89;100.00;101176.66;5113052;28;19931;-75
2021/01/03 10:36:39;;;;;;;;;;;;;;;1.94;100.00;101184.00;5097148;28;19930;-76
2021/01/03 10:39:07;;;;;;;;;;;;;;;1.94;100.00;101189.50;5097163;28;19924;-76
2021/01/03 10:41:35;;;;;;;;;;;;;;;1.85;100.00;101189.44;5079112;28;19932;-76
2021/01/03 10:44:02;;;;;;;;;;;;;;;1.88;100.00;101193.53;5078767;28;19931;-76
2021/01/03 10:46:29;;;;;;;;;;;;;;;1.81;100.00;101193.97;5079106;28;19931;-76
2021/01/03 10:48:56;;;;;;;;;;;;;;;1.84;100.00;101194.16;5096900;28;20019;-76
2021/01/03 10:51:31;;;;;;;;;;;;;;;1.83;100.00;101194.47;5096866;28;19924;-76
2021/01/03 10:53:57;;;;;;;;;;;;;;;1.84;100.00;101193.34;5096979;28;19924;-76
2021/01/03 10:56:24;;;;;;;;;;;;;;;1.92;100.00;101196.13;5096502;28;20382;-77
2021/01/03 10:58:51;;;;;;;;;;;;;;;1.88;100.00;101200.66;5086781;28;19931;-75
2021/01/03 11:01:18;;;;;;;;;;;;;;;1.88;100.00;101197.91;5095156;28;19924;-78
2021/01/03 11:03:46;;;;;;;;;;;;;;;2.02;100.00;101206.09;5111567;28;20407;-77
2021/01/03 11:06:23;;;;;;;;;;;;;;;2.03;100.00;101191.16;5096369;28;20255;-77
2021/01/03 11:08:52;;;;;;;;;;;;;;;2.08;100.00;101187.47;5078482;28;19958;-78
2021/01/03 11:11:19;;;;;;;;;;;;;;;2.14;100.00;101183.44;5096001;28;19924;-78
2021/01/03 11:13:46;;;;;;;;;;;;;;;2.21;100.00;101181.88;5096547;28;19931;-77
2021/01/03 11:16:13;;;;;;;;;;;;;;;2.15;100.00;101185.09;5078401;28;20019;-78
2021/01/03 11:18:39;;;;;;;;;;;;;;;2.15;100.00;101160.25;5112310;28;19970;-78
2021/01/03 11:21:10;;;;;;;;;;;;;;;2.12;100.00;101166.41;5094969;28;19925;-78
2021/01/03 11:23:37;;;;;;;;;;;;;;;2.18;100.00;101154.09;5078677;28;19993;-79
2021/01/03 11:26:04;;;;;;;;;;;;;;;2.30;100.00;101148.81;5078078;28;19931;-78
2021/01/03 11:28:30;;;;;;;;;;;;;;;2.33;100.00;101131.63;5096326;28;19924;-78
2021/01/03 11:30:57;;;;;;;;;;;;;;;2.28;100.00;101116.03;5096250;28;20367;-78
2021/01/03 11:33:24;;;;;;;;;;;;;;;2.26;100.00;101107.25;5097618;28;20438;-77
2021/01/03 11:35:50;;;;;;;;;;;;;;;2.27;100.00;101119.09;5080372;28;19928;-77
2021/01/03 11:38:17;;;;;;;;;;;;;;;2.29;100.00;101095.56;5100659;28;19924;-78
2021/01/03 11:40:43;;;;;;;;;;;;;;;2.37;100.00;101085.69;5109169;28;19924;-76
2021/01/03 11:43:10;;;;;;;;;;;;;;;2.39;100.00;101066.88;5088325;28;19924;-77
2021/01/03 11:45:37;;;;;;;;;;;;;;;2.47;100.00;101046.78;5115846;28;20275;-76
2021/01/03 11:48:03;;;;;;;;;;;;;;;2.60;100.00;101032.00;5096761;28;19924;-78
2021/01/03 11:50:30;;;;;;;;;;;;;;;2.55;100.00;101005.38;5082749;28;19924;-78
2021/01/03 11:53:00;;;;;;;;;;;;;;;2.66;100.00;100986.53;5107289;28;19924;-77
2021/01/03 11:55:26;;;;;;;;;;;;;;;2.60;100.00;100963.00;5094159;28;19970;-77
2021/01/03 11:57:53;;;;;;;;;;;;;;;2.62;100.00;100944.19;5093864;28;19927;-77
2021/01/03 12:00:19;;;;;;;;;;;;;;;2.59;100.00;100925.50;5097888;28;19966;-77
2021/01/03 12:02:46;;;;;;;;;;;;;;;2.62;100.00;100900.81;5108495;28;20011;-77
2021/01/03 12:05:18;;;;;;;;;;;;;;;2.64;100.00;100875.63;5094511;28;19928;-77
2021/01/03 12:07:44;;;;;;;;;;;;;;;2.62;100.00;100844.81;5092899;28;19924;-76
2021/01/03 12:10:11;;;;;;;;;;;;;;;2.56;100.00;100807.50;5063557;28;19924;-77
2021/01/03 12:12:38;;;;;;;;;;;;;;;2.56;100.00;100771.63;5091625;28;19962;-76
2021/01/03 12:15:05;;;;;;;;;;;;;;;2.64;100.00;100751.44;5104877;28;19923;-78
2021/01/03 12:17:32;;;;;;;;;;;;;;;2.66;100.00;100716.88;5083823;28;19928;-77
2021/01/03 12:19:59;;;;;;;;;;;;;;;2.71;100.00;100688.25;5111986;28;19924;-77
2021/01/03 12:22:25;;;;;;;;;;;;;;;2.52;100.00;100651.97;5097336;28;19925;-77
2021/01/03 12:24:52;;;;;;;;;;;;;;;2.50;100.00;100641.28;5096866;28;19928;-77
2021/01/03 12:27:21;;;;;;;;;;;;;;;2.40;100.00;100616.81;5097255;28;19930;-77
2021/01/03 12:29:48;;;;;;;;;;;;;;;2.28;100.00;100597.41;5092857;28;19963;-77
2021/01/03 12:32:14;;;;;;;;;;;;;;;2.29;100.00;100579.72;5097827;28;19963;-77
2021/01/03 12:34:41;;;;;;;;;;;;;;;2.29;100.00;100551.34;5108607;28;19924;-79
2021/01/03 12:37:09;;;;;;;;;;;;;;;2.28;100.00;100546.94;5086801;28;19923;-77
2021/01/03 12:39:36;;;;;;;;;;;;;;;2.38;100.00;100557.63;5100310;28;19924;-76
2021/01/03 12:42:03;;;;;;;;;;;;;;;2.31;100.00;100529.72;5080195;28;20004;-75
2021/01/03 12:44:29;;;;;;;;;;;;;;;2.29;100.00;100527.31;5095686;28;19939;-76
2021/01/03 12:47:00;;;;;;;;;;;;;;;2.34;100.00;100529.06;5091668;28;20001;-76
2021/01/03 12:49:27;;;;;;;;;;;;;;;2.51;100.00;100521.50;5082024;28;19924;-75
2021/01/03 12:51:54;;;;;;;;;;;;;;;2.51;100.00;100517.94;5099428;28;19930;-77